createdAt,value
2022-12-17T00:01:41.795Z,9.02
2022-12-17T00:04:32.226Z,9.01
2022-12-17T00:07:17.690Z,9.03
2022-12-17T00:10:02.723Z,9.03
2022-12-17T00:12:49.553Z,9.01
2022-12-17T00:15:35.286Z,9.01
2022-12-17T00:18:21.600Z,8.96
2022-12-17T00:21:11.334Z,8.93
2022-12-17T00:23:56.611Z,8.94
2022-12-17T00:26:42.339Z,8.96
2022-12-17T00:29:29.094Z,9.01
2022-12-17T00:32:14.532Z,9.10
2022-12-17T00:34:59.298Z,9.22
2022-12-17T00:37:44.702Z,9.28
2022-12-17T00:40:30.390Z,9.29
2022-12-17T00:43:19.230Z,9.24
2022-12-17T00:46:06.041Z,9.17
2022-12-17T00:48:51.728Z,9.09
2022-12-17T00:51:37.572Z,8.99
2022-12-17T00:54:23.630Z,8.90
2022-12-17T00:57:09.006Z,8.84
2022-12-17T00:59:55.275Z,8.77
2022-12-17T01:02:43.949Z,8.74
2022-12-17T01:05:29.942Z,8.76
2022-12-17T01:08:15.781Z,8.76
2022-12-17T01:11:01.742Z,8.68
2022-12-17T01:13:47.307Z,8.67
2022-12-17T01:16:33.769Z,8.68
2022-12-17T01:19:20.530Z,8.71
2022-12-17T01:22:05.885Z,8.75
2022-12-17T01:24:51.531Z,8.77
2022-12-17T01:27:37.247Z,8.67
2022-12-17T01:30:22.580Z,8.53
2022-12-17T01:33:08.001Z,8.47
2022-12-17T01:35:54.487Z,8.47
2022-12-17T01:38:39.970Z,8.47
2022-12-17T01:41:25.006Z,8.52
2022-12-17T01:44:10.347Z,8.58
2022-12-17T01:46:59.980Z,8.64
2022-12-17T01:49:46.708Z,8.64
2022-12-17T01:52:35.509Z,8.67
2022-12-17T01:55:22.784Z,8.72
2022-12-17T01:58:08.480Z,8.73
2022-12-17T02:00:54.231Z,8.76
2022-12-17T02:03:39.588Z,8.76
2022-12-17T02:06:28.295Z,8.74
2022-12-17T02:09:24.443Z,8.72
2022-12-17T02:12:32.870Z,8.72
2022-12-17T02:15:24.676Z,8.69
2022-12-17T02:18:14.932Z,8.67
2022-12-17T02:21:05.386Z,8.63
2022-12-17T02:24:00.960Z,8.64
2022-12-17T02:26:54.506Z,8.65
2022-12-17T02:29:42.536Z,8.67
2022-12-17T02:32:30.453Z,8.66
2022-12-17T02:35:16.841Z,8.63
2022-12-17T02:38:05.432Z,8.60
2022-12-17T02:40:53.445Z,8.58
2022-12-17T02:43:45.073Z,8.57
2022-12-17T02:46:31.780Z,8.57
2022-12-17T02:49:17.139Z,8.56
2022-12-17T02:52:03.070Z,8.63
2022-12-17T02:54:48.592Z,8.72
2022-12-17T02:57:33.847Z,8.74
2022-12-17T03:00:20.925Z,8.78
2022-12-17T03:03:05.784Z,8.87
2022-12-17T03:05:51.070Z,8.97
2022-12-17T03:08:36.370Z,9.09
2022-12-17T03:11:21.807Z,9.19
2022-12-17T03:14:06.900Z,9.29
2022-12-17T03:16:53.854Z,9.34
2022-12-17T03:19:39.571Z,9.34
2022-12-17T03:22:24.926Z,9.35
2022-12-17T03:25:10.083Z,9.40
2022-12-17T03:27:55.371Z,9.37
2022-12-17T03:30:43.248Z,9.34
2022-12-17T03:33:34.313Z,9.32
2022-12-17T03:36:19.829Z,9.28
2022-12-17T03:39:05.032Z,9.17
2022-12-17T03:41:50.300Z,9.11
2022-12-17T03:44:35.676Z,9.12
2022-12-17T03:47:20.537Z,9.14
2022-12-17T03:50:07.473Z,9.21
2022-12-17T03:52:52.881Z,9.24
2022-12-17T03:55:37.836Z,9.29
2022-12-17T03:58:23.259Z,9.31
2022-12-17T04:01:08.076Z,9.26
2022-12-17T04:03:53.834Z,9.21
2022-12-17T04:06:40.373Z,9.15
2022-12-17T04:09:25.529Z,9.13
2022-12-17T04:12:10.834Z,9.13
2022-12-17T04:14:56.410Z,9.16
2022-12-17T04:17:41.224Z,9.21
2022-12-17T04:20:27.073Z,9.24
2022-12-17T04:23:13.992Z,9.17
2022-12-17T04:25:59.548Z,9.13
2022-12-17T04:28:44.900Z,9.13
2022-12-17T04:31:29.887Z,9.20
2022-12-17T04:34:15.660Z,9.25
2022-12-17T04:37:01.070Z,9.33
2022-12-17T04:39:47.895Z,9.53
2022-12-17T04:42:35.474Z,9.73
2022-12-17T04:45:20.962Z,9.88
2022-12-17T04:48:06.241Z,9.97
2022-12-17T04:50:51.619Z,9.98
2022-12-17T04:53:37.172Z,10.01
2022-12-17T04:56:24.724Z,10.02
2022-12-17T04:59:10.084Z,10.03
2022-12-17T05:01:55.091Z,10.09
2022-12-17T05:04:40.660Z,10.17
2022-12-17T05:07:25.551Z,10.28
2022-12-17T05:10:10.832Z,10.43
2022-12-17T05:12:57.637Z,10.51
2022-12-17T05:15:43.257Z,10.62
2022-12-17T05:18:38.942Z,10.68
2022-12-17T05:21:24.473Z,10.79
2022-12-17T05:24:10.219Z,10.87
2022-12-17T05:26:55.561Z,10.94
2022-12-17T05:29:43.691Z,10.99
2022-12-17T05:32:29.044Z,11.05
2022-12-17T05:35:13.095Z,11.08
2022-12-17T05:37:58.695Z,11.10
2022-12-17T05:40:44.274Z,11.09
2022-12-17T05:43:30.764Z,11.09
2022-12-17T05:46:17.913Z,11.09
2022-12-17T05:49:03.861Z,11.13
2022-12-17T05:51:49.308Z,11.13
2022-12-17T05:54:35.032Z,11.15
2022-12-17T05:57:20.602Z,11.15
2022-12-17T06:00:05.822Z,11.18
2022-12-17T06:02:52.646Z,11.22
2022-12-17T06:05:37.847Z,11.21
2022-12-17T06:08:24.674Z,11.21
2022-12-17T06:11:10.175Z,11.19
2022-12-17T06:13:55.593Z,11.19
2022-12-17T06:16:40.558Z,11.21
2022-12-17T06:19:27.419Z,11.22
2022-12-17T06:22:12.817Z,11.22
2022-12-17T06:24:57.712Z,11.22
2022-12-17T06:27:39.488Z,11.22
2022-12-17T06:30:25.777Z,11.23
2022-12-17T06:33:11.176Z,11.25
2022-12-17T06:36:03.135Z,11.29
2022-12-17T06:38:48.542Z,11.32
2022-12-17T06:41:33.964Z,11.37
2022-12-17T06:44:19.395Z,11.40
2022-12-17T06:47:04.569Z,11.39
2022-12-17T06:49:50.096Z,11.36
2022-12-17T06:52:37.109Z,11.31
2022-12-17T06:55:23.015Z,11.29
2022-12-17T06:58:14.276Z,11.29
2022-12-17T07:00:59.592Z,11.25
2022-12-17T07:03:44.752Z,11.19
2022-12-17T07:06:30.066Z,11.08
2022-12-17T07:09:16.946Z,10.97
2022-12-17T07:12:02.478Z,10.94
2022-12-17T07:14:47.890Z,10.90
2022-12-17T07:17:32.949Z,10.88
2022-12-17T07:20:18.411Z,10.90
2022-12-17T07:23:03.821Z,10.94
2022-12-17T07:25:50.811Z,11.00
2022-12-17T07:28:36.512Z,11.08
2022-12-17T07:31:21.925Z,11.10
2022-12-17T07:34:03.727Z,11.10
2022-12-17T07:36:49.080Z,11.17
2022-12-17T07:39:34.150Z,11.23
2022-12-17T07:42:20.922Z,11.27
2022-12-17T07:45:06.346Z,11.31
2022-12-17T07:47:51.288Z,11.39
2022-12-17T07:50:36.546Z,11.45
2022-12-17T07:53:23.336Z,11.47
2022-12-17T07:56:09.989Z,11.53
2022-12-17T07:58:56.619Z,11.60
2022-12-17T08:01:42.035Z,11.67
2022-12-17T08:04:27.823Z,11.73
2022-12-17T08:07:14.243Z,11.80
2022-12-17T08:10:00.205Z,11.87
2022-12-17T08:12:45.452Z,11.93
2022-12-17T08:15:32.434Z,11.94
2022-12-17T08:18:24.569Z,11.98
2022-12-17T08:21:12.313Z,11.99
2022-12-17T08:23:57.488Z,12.00
2022-12-17T08:26:47.514Z,12.05
2022-12-17T08:29:33.382Z,12.08
2022-12-17T08:32:26.415Z,12.12
2022-12-17T08:35:11.667Z,12.14
2022-12-17T08:37:57.013Z,12.12
2022-12-17T08:40:41.972Z,12.17
2022-12-17T08:43:30.618Z,12.23
2022-12-17T08:46:16.547Z,12.28
2022-12-17T08:49:03.300Z,12.36
2022-12-17T08:51:48.937Z,12.42
2022-12-17T08:54:34.502Z,12.50
2022-12-17T08:57:30.664Z,12.54
2022-12-17T09:00:17.014Z,12.61
2022-12-17T09:03:03.005Z,12.68
2022-12-17T09:05:50.061Z,12.73
2022-12-17T09:08:35.504Z,12.76
2022-12-17T09:11:20.999Z,12.76
2022-12-17T09:14:06.208Z,12.72
2022-12-17T09:16:51.555Z,12.68
2022-12-17T09:19:36.744Z,12.68
2022-12-17T09:22:28.878Z,12.73
2022-12-17T09:25:14.462Z,12.77
2022-12-17T09:27:59.550Z,12.83
2022-12-17T09:30:44.900Z,12.87
2022-12-17T09:33:33.777Z,12.92
2022-12-17T09:36:22.169Z,12.93
2022-12-17T09:39:09.160Z,12.96
2022-12-17T09:42:04.848Z,12.95
2022-12-17T09:44:55.553Z,13.03
2022-12-17T09:47:52.521Z,13.10
2022-12-17T09:50:38.843Z,13.20
2022-12-17T09:53:38.878Z,13.22
2022-12-17T09:56:29.311Z,13.23
2022-12-17T09:59:15.131Z,13.22
2022-12-17T10:02:01.210Z,13.22
2022-12-17T10:04:53.532Z,13.21
2022-12-17T10:07:42.036Z,13.18
2022-12-17T10:10:35.990Z,13.17
2022-12-17T10:13:29.031Z,13.18
2022-12-17T10:16:16.881Z,13.27
2022-12-17T10:19:02.824Z,13.29
2022-12-17T10:21:48.998Z,13.25
2022-12-17T10:24:34.752Z,13.12
2022-12-17T10:27:27.659Z,13.03
2022-12-17T10:30:14.395Z,12.91
2022-12-17T10:33:00.284Z,12.73
2022-12-17T10:35:53.319Z,12.56
2022-12-17T10:38:41.362Z,12.33
2022-12-17T10:41:39.711Z,12.18
2022-12-17T10:44:41.251Z,11.97
2022-12-17T10:47:32.687Z,11.88
2022-12-17T10:50:22.620Z,11.73
2022-12-17T10:53:08.021Z,11.60
2022-12-17T10:55:53.980Z,11.53
2022-12-17T10:58:41.951Z,11.44
2022-12-17T11:01:31.368Z,11.34
2022-12-17T11:04:18.057Z,11.29
2022-12-17T11:07:06.379Z,11.30
2022-12-17T11:10:03.751Z,11.24
2022-12-17T11:12:57.178Z,11.26
2022-12-17T11:15:50.628Z,11.18
2022-12-17T11:18:40.783Z,11.00
2022-12-17T11:21:30.851Z,10.92
2022-12-17T11:24:22.464Z,10.85
2022-12-17T11:27:12.196Z,10.75
2022-12-17T11:29:57.860Z,10.70
2022-12-17T11:33:07.872Z,10.67
2022-12-17T11:36:03.794Z,10.65
2022-12-17T11:38:54.557Z,10.58
2022-12-17T11:41:52.678Z,10.52
2022-12-17T11:44:53.086Z,10.48
2022-12-17T11:47:57.411Z,10.39
2022-12-17T11:50:46.040Z,10.29
2022-12-17T11:53:45.932Z,10.30
2022-12-17T11:56:41.575Z,10.26
2022-12-17T11:59:34.615Z,10.23
2022-12-17T12:02:35.674Z,10.10
2022-12-17T12:05:36.007Z,10.07
2022-12-17T12:08:30.525Z,10.03
2022-12-17T12:11:29.778Z,10.01
2022-12-17T12:14:28.275Z,10.00
2022-12-17T12:17:33.200Z,9.99
2022-12-17T12:20:23.628Z,9.99
2022-12-17T12:23:22.235Z,10.00
2022-12-17T12:26:18.745Z,9.95
2022-12-17T12:29:11.594Z,9.86
2022-12-17T12:32:17.865Z,9.78
2022-12-17T12:35:04.407Z,9.73
2022-12-17T12:37:51.017Z,9.73
2022-12-17T12:40:47.108Z,9.74
2022-12-17T12:43:39.600Z,9.79
2022-12-17T12:46:33.235Z,9.86
2022-12-17T12:49:38.855Z,9.86
2022-12-17T12:52:21.027Z,9.86
2022-12-17T12:55:11.717Z,9.87
2022-12-17T12:58:00.463Z,9.86
2022-12-17T13:00:50.271Z,9.82
2022-12-17T13:03:44.784Z,9.79
2022-12-17T13:06:16.087Z,9.76
2022-12-17T13:08:44.008Z,9.64
2022-12-17T13:11:28.369Z,9.63
2022-12-17T13:14:02.568Z,9.50
2022-12-17T13:16:39.150Z,9.46
2022-12-17T13:19:21.904Z,9.47
2022-12-17T13:21:51.414Z,9.41
2022-12-17T13:24:25.985Z,9.38
2022-12-17T13:26:54.477Z,9.35
2022-12-17T13:29:29.859Z,9.29
2022-12-17T13:32:22.113Z,9.12
2022-12-17T13:35:03.304Z,9.10
2022-12-17T13:37:45.059Z,8.99
2022-12-17T13:40:30.247Z,8.95
2022-12-17T13:42:58.282Z,8.89
2022-12-17T13:45:28.534Z,8.88
2022-12-17T13:47:57.895Z,8.78
2022-12-17T13:50:36.478Z,8.69
2022-12-17T13:53:13.424Z,8.59
2022-12-17T13:55:42.024Z,8.54
2022-12-17T13:58:22.555Z,8.45
2022-12-17T14:00:50.575Z,8.34
2022-12-17T14:03:43.074Z,8.23
2022-12-17T14:06:13.043Z,8.19
2022-12-17T14:08:43.411Z,8.16
2022-12-17T14:11:30.627Z,8.07
2022-12-17T14:13:58.930Z,7.94
2022-12-17T14:16:26.902Z,7.78
2022-12-17T14:18:57.208Z,7.68
2022-12-17T14:21:27.849Z,7.60
2022-12-17T14:23:58.706Z,7.49
2022-12-17T14:26:26.709Z,7.44
2022-12-17T14:28:56.379Z,7.40
2022-12-17T14:31:28.687Z,7.40
2022-12-17T14:34:07.654Z,7.41
2022-12-17T14:36:38.482Z,7.37
2022-12-17T14:39:19.168Z,7.40
2022-12-17T14:42:04.580Z,7.40
2022-12-17T14:44:32.764Z,7.41
2022-12-17T14:47:14.913Z,7.38
2022-12-17T14:49:55.753Z,7.36
2022-12-17T14:52:28.980Z,7.36
2022-12-17T14:54:58.364Z,7.38
2022-12-17T14:57:26.451Z,7.37
2022-12-17T14:59:54.468Z,7.37
2022-12-17T15:02:26.954Z,7.35
2022-12-17T15:04:57.814Z,7.34
2022-12-17T15:07:27.331Z,7.32
2022-12-17T15:09:56.365Z,7.33
2022-12-17T15:12:26.617Z,7.27
2022-12-17T15:14:54.657Z,7.27
2022-12-17T15:17:22.668Z,7.23
2022-12-17T15:19:55.950Z,7.22
2022-12-17T15:22:24.845Z,7.20
2022-12-17T15:24:52.893Z,7.21
2022-12-17T15:27:20.837Z,7.12
2022-12-17T15:29:50.217Z,7.15
2022-12-17T15:32:20.332Z,7.19
2022-12-17T15:34:48.319Z,7.12
2022-12-17T15:37:21.077Z,7.18
2022-12-17T15:39:52.179Z,7.12
2022-12-17T15:42:37.365Z,7.19
2022-12-17T15:45:07.927Z,7.18
2022-12-17T15:47:35.835Z,7.18
2022-12-17T15:50:04.176Z,7.20
2022-12-17T15:52:32.703Z,7.22
2022-12-17T15:55:00.717Z,7.22
2022-12-17T15:57:28.605Z,7.17
2022-12-17T15:59:56.517Z,7.15
2022-12-17T16:02:26.072Z,7.18
2022-12-17T16:04:54.120Z,7.18
2022-12-17T16:07:22.140Z,7.16
2022-12-17T16:09:50.045Z,7.15
2022-12-17T16:12:18.011Z,7.14
2022-12-17T16:14:45.977Z,7.14
2022-12-17T16:17:13.851Z,7.12
2022-12-17T16:19:43.169Z,7.12
2022-12-17T16:22:11.060Z,7.13
2022-12-17T16:24:39.011Z,7.12
2022-12-17T16:27:06.863Z,7.11
2022-12-17T16:29:35.027Z,7.06
2022-12-17T16:32:03.085Z,7.09
2022-12-17T16:34:31.051Z,7.11
2022-12-17T16:37:01.623Z,7.11
2022-12-17T16:39:29.587Z,7.10
2022-12-17T16:41:57.622Z,7.10
2022-12-17T16:44:25.814Z,7.03
2022-12-17T16:46:53.783Z,7.05
2022-12-17T16:49:24.542Z,6.97
2022-12-17T16:51:54.346Z,6.98
2022-12-17T16:54:26.216Z,6.92
2022-12-17T16:56:54.985Z,6.88
2022-12-17T16:59:23.537Z,6.82
2022-12-17T17:01:52.583Z,6.79
2022-12-17T17:04:23.372Z,6.86
2022-12-17T17:06:52.986Z,6.90
2022-12-17T17:09:21.905Z,6.92
2022-12-17T17:11:52.512Z,6.95
2022-12-17T17:14:21.197Z,7.01
2022-12-17T17:16:49.115Z,7.09
2022-12-17T17:19:17.193Z,7.16
2022-12-17T17:21:50.649Z,7.19
2022-12-17T17:24:22.136Z,7.22
2022-12-17T17:26:52.828Z,7.18
2022-12-17T17:29:20.982Z,7.21
2022-12-17T17:34:38.498Z,7.09
2022-12-17T17:37:06.461Z,7.07
2022-12-17T17:39:34.784Z,7.04
2022-12-17T17:42:04.354Z,7.01
2022-12-17T17:44:32.261Z,7.01
2022-12-17T17:47:00.387Z,6.95
2022-12-17T17:49:28.942Z,6.95
2022-12-17T17:52:12.558Z,6.94
2022-12-17T17:54:41.015Z,6.90
2022-12-17T17:57:10.884Z,6.90
2022-12-17T17:59:39.714Z,6.90
2022-12-17T18:02:09.005Z,6.86
2022-12-17T18:04:37.069Z,6.86
2022-12-17T18:09:53.069Z,6.89
2022-12-17T18:12:39.774Z,6.87
2022-12-17T18:15:17.690Z,6.84
2022-12-17T18:17:47.415Z,6.81
2022-12-17T18:20:15.460Z,6.76
2022-12-17T18:22:45.781Z,6.71
2022-12-17T18:25:14.016Z,6.62
2022-12-17T18:27:43.390Z,6.52
2022-12-17T18:30:12.035Z,6.42
2022-12-17T18:32:40.051Z,6.30
2022-12-17T18:35:09.154Z,6.20
2022-12-17T18:37:37.569Z,5.99
2022-12-17T18:40:06.760Z,5.99
2022-12-17T18:43:03.634Z,5.94
2022-12-17T18:45:38.132Z,5.83
2022-12-17T18:48:06.662Z,5.83
2022-12-17T18:50:38.768Z,5.81
2022-12-17T18:53:06.720Z,5.83
2022-12-17T18:55:34.670Z,5.87
2022-12-17T18:58:02.820Z,5.87
2022-12-17T19:00:32.321Z,5.92
2022-12-17T19:03:00.423Z,5.97
2022-12-17T19:05:28.554Z,5.99
2022-12-17T19:07:56.459Z,6.02
2022-12-17T19:10:24.481Z,6.02
2022-12-17T19:12:52.477Z,6.01
2022-12-17T19:15:20.401Z,5.99
2022-12-17T19:17:50.949Z,5.97
2022-12-17T19:20:20.150Z,5.97
2022-12-17T19:22:48.034Z,5.94
2022-12-17T19:25:16.046Z,5.93
2022-12-17T19:27:44.010Z,5.90
2022-12-17T19:30:12.710Z,5.88
2022-12-17T19:32:40.831Z,5.84
2022-12-17T19:35:10.551Z,5.80
2022-12-17T19:37:38.532Z,5.69
2022-12-17T19:40:07.536Z,5.60
2022-12-17T19:42:37.714Z,5.52
2022-12-17T19:45:06.630Z,5.49
2022-12-17T19:47:34.664Z,5.42
2022-12-17T19:50:02.547Z,5.37
2022-12-17T19:52:31.795Z,5.32
2022-12-17T19:54:59.744Z,5.30
2022-12-17T19:57:27.693Z,5.24
2022-12-17T19:59:55.595Z,5.23
2022-12-17T20:02:26.031Z,5.29
2022-12-17T20:04:57.798Z,5.27
2022-12-17T20:07:25.768Z,5.28
2022-12-17T20:09:55.037Z,5.28
2022-12-17T20:12:23.049Z,5.18
2022-12-17T20:14:51.216Z,5.20
2022-12-17T20:17:20.361Z,5.16
2022-12-17T20:19:49.518Z,5.10
2022-12-17T20:22:17.441Z,5.08
2022-12-17T20:24:45.435Z,5.04
2022-12-17T20:27:15.026Z,5.03
2022-12-17T20:29:43.029Z,4.98
2022-12-17T20:32:11.061Z,4.99
2022-12-17T20:34:39.095Z,4.93
2022-12-17T20:37:06.972Z,4.91
2022-12-17T20:39:35.885Z,4.87
2022-12-17T20:42:03.814Z,4.86
2022-12-17T20:44:33.282Z,4.83
2022-12-17T20:47:01.693Z,4.79
2022-12-17T20:49:29.638Z,4.76
2022-12-17T20:51:57.625Z,4.68
2022-12-17T20:54:25.543Z,4.68
2022-12-17T20:56:53.501Z,4.73
2022-12-17T20:59:21.755Z,4.78
2022-12-17T21:01:55.851Z,4.77
2022-12-17T21:04:24.936Z,4.81
2022-12-17T21:06:53.184Z,4.85
2022-12-17T21:09:22.606Z,4.82
2022-12-17T21:11:50.610Z,4.85
2022-12-17T21:14:20.243Z,4.87
2022-12-17T21:16:50.967Z,4.90
2022-12-17T21:19:20.948Z,4.95
2022-12-17T21:21:49.095Z,5.02
2022-12-17T21:24:17.266Z,5.08
2022-12-17T21:26:47.077Z,5.15
2022-12-17T21:29:15.857Z,5.23
2022-12-17T21:31:46.556Z,5.30
2022-12-17T21:34:17.486Z,5.36
2022-12-17T21:36:45.704Z,5.38
2022-12-17T21:39:14.724Z,5.39
2022-12-17T21:42:08.068Z,5.38
2022-12-17T21:44:36.214Z,5.38
2022-12-17T21:47:04.425Z,5.37
2022-12-17T21:49:33.870Z,5.34
2022-12-17T21:52:02.924Z,5.33
2022-12-17T21:54:30.974Z,5.32
2022-12-17T21:56:58.875Z,5.30
2022-12-17T21:59:26.857Z,5.24
2022-12-17T22:01:57.392Z,5.22
2022-12-17T22:04:26.789Z,5.18
2022-12-17T22:06:58.661Z,5.17
2022-12-17T22:10:00.307Z,5.15
2022-12-17T22:12:44.046Z,5.09
2022-12-17T22:15:12.224Z,5.04
2022-12-17T22:17:41.724Z,4.97
2022-12-17T22:20:11.006Z,4.93
2022-12-17T22:22:40.397Z,4.88
2022-12-17T22:25:11.409Z,4.88
2022-12-17T22:27:40.473Z,4.88
2022-12-17T22:30:31.783Z,4.90
2022-12-17T22:33:09.494Z,4.89
2022-12-17T22:37:38.711Z,4.87
2022-12-17T22:43:11.651Z,4.86
2022-12-17T22:44:48.899Z,4.80
2022-12-17T22:44:51.479Z,4.76
2022-12-17T22:47:20.826Z,4.74
2022-12-17T22:49:48.822Z,4.76
2022-12-17T22:52:18.229Z,4.77
2022-12-17T22:54:49.422Z,4.79
2022-12-17T22:57:35.402Z,4.78
2022-12-17T23:00:08.517Z,4.77
2022-12-17T23:02:37.941Z,4.77
2022-12-17T23:05:06.526Z,4.76
2022-12-17T23:07:34.497Z,4.76
2022-12-17T23:10:04.004Z,4.76
2022-12-17T23:12:49.261Z,4.77
2022-12-17T23:15:17.319Z,4.79
2022-12-17T23:17:45.381Z,4.79
2022-12-17T23:20:13.567Z,4.78
2022-12-17T23:22:41.600Z,4.73
2022-12-17T23:25:12.502Z,4.65
2022-12-17T23:27:45.935Z,4.62
2022-12-17T23:30:16.133Z,4.60
2022-12-17T23:32:44.895Z,4.58
2022-12-17T23:35:14.144Z,4.58
2022-12-17T23:37:42.661Z,4.56
2022-12-17T23:40:15.459Z,4.53
2022-12-17T23:42:43.466Z,4.55
2022-12-17T23:45:12.165Z,4.54
2022-12-17T23:47:41.046Z,4.49
2022-12-17T23:50:11.660Z,4.43
2022-12-17T23:52:40.444Z,4.37
2022-12-17T23:55:09.119Z,4.25
2022-12-17T23:57:38.961Z,4.22
